createdAt,value
2019-04-07T00:00:16.616Z,54.07
2019-04-07T00:02:46.368Z,53.73
2019-04-07T00:05:16.092Z,59.30
2019-04-07T00:07:45.329Z,58.53
2019-04-07T00:10:14.691Z,59.57
2019-04-07T00:12:43.794Z,58.53
2019-04-07T00:15:13.084Z,58.53
2019-04-07T00:17:43.143Z,64.67
2019-04-07T00:20:12.555Z,52.43
2019-04-07T00:22:42.169Z,60.10
2019-04-07T00:25:11.870Z,57.27
2019-04-07T00:27:41.245Z,55.67
2019-04-07T00:30:10.504Z,49.23
2019-04-07T00:32:39.622Z,53.73
2019-04-07T00:35:08.898Z,53.20
2019-04-07T00:37:38.338Z,57.37
2019-04-07T00:40:07.761Z,55.77
2019-04-07T00:42:36.869Z,57.30
2019-04-07T00:45:06.348Z,54.50
2019-04-07T00:47:36.079Z,55.50
2019-04-07T00:50:05.458Z,58.80
2019-04-07T00:52:34.946Z,59.20
2019-04-07T00:55:04.581Z,60.73
2019-04-07T00:57:33.778Z,55.47
2019-04-07T01:00:04.401Z,53.57
2019-04-07T01:02:34.274Z,53.47
2019-04-07T01:05:03.437Z,59.30
2019-04-07T01:07:33.400Z,55.03
2019-04-07T01:10:02.936Z,56.53
2019-04-07T01:12:32.767Z,59.00
2019-04-07T01:15:02.304Z,51.43
2019-04-07T01:17:31.828Z,52.67
2019-04-07T01:20:01.041Z,48.63
2019-04-07T01:22:30.906Z,62.87
2019-04-07T01:25:00.628Z,52.23
2019-04-07T01:27:30.048Z,56.20
2019-04-07T01:29:59.582Z,56.93
2019-04-07T01:32:29.115Z,50.80
2019-04-07T01:34:59.625Z,55.80
2019-04-07T01:37:29.057Z,53.33
2019-04-07T01:39:58.176Z,54.60
2019-04-07T01:42:32.623Z,56.33
2019-04-07T01:45:20.563Z,50.30
2019-04-07T01:48:02.803Z,65.20
2019-04-07T01:50:45.125Z,52.00
2019-04-07T01:53:22.785Z,50.47
2019-04-07T01:56:09.927Z,58.57
2019-04-07T01:59:01.536Z,54.60
2019-04-07T02:02:02.147Z,56.10
2019-04-07T02:04:49.295Z,52.43
2019-04-07T02:07:40.456Z,61.00
2019-04-07T02:10:17.442Z,54.40
2019-04-07T02:13:24.927Z,55.63
2019-04-07T02:16:02.888Z,56.83
2019-04-07T02:18:40.090Z,64.37
2019-04-07T02:21:14.244Z,53.23
2019-04-07T02:24:00.203Z,54.20
2019-04-07T02:26:52.223Z,56.60
2019-04-07T02:29:44.623Z,55.77
2019-04-07T02:32:40.005Z,58.40
2019-04-07T02:35:28.505Z,59.40
2019-04-07T02:38:06.260Z,59.33
2019-04-07T02:40:45.740Z,60.30
2019-04-07T02:43:25.329Z,53.70
2019-04-07T02:46:05.808Z,55.53
2019-04-07T02:48:57.847Z,54.70
2019-04-07T02:51:45.696Z,57.00
2019-04-07T02:54:44.426Z,54.83
2019-04-07T02:57:31.923Z,62.80
2019-04-07T03:00:12.026Z,53.47
2019-04-07T03:03:04.707Z,53.73
2019-04-07T03:05:51.581Z,56.97
2019-04-07T03:08:39.659Z,57.37
2019-04-07T03:11:29.203Z,53.53
2019-04-07T03:14:15.036Z,55.67
2019-04-07T03:17:00.116Z,56.33
2019-04-07T03:19:34.632Z,50.77
2019-04-07T03:22:13.183Z,56.73
2019-04-07T03:24:49.548Z,54.90
2019-04-07T03:27:33.843Z,55.30
2019-04-07T03:30:11.315Z,54.17
2019-04-07T03:33:02.178Z,55.27
2019-04-07T03:36:02.026Z,58.27
2019-04-07T03:39:00.917Z,57.03
2019-04-07T03:41:36.324Z,56.23
2019-04-07T03:44:30.968Z,53.70
2019-04-07T03:47:04.880Z,62.20
2019-04-07T03:49:44.261Z,56.20
2019-04-07T03:52:21.278Z,56.73
2019-04-07T03:55:13.133Z,52.77
2019-04-07T03:57:52.587Z,51.47
2019-04-07T04:01:08.171Z,59.13
2019-04-07T04:03:44.077Z,56.73
2019-04-07T04:06:39.030Z,52.10
2019-04-07T04:09:17.257Z,55.13
2019-04-07T04:11:57.923Z,57.53
2019-04-07T04:14:33.285Z,58.10
2019-04-07T04:17:03.032Z,56.57
2019-04-07T04:19:33.598Z,60.03
2019-04-07T04:22:04.083Z,53.07
2019-04-07T04:24:34.965Z,52.37
2019-04-07T04:27:05.055Z,57.33
2019-04-07T04:29:34.684Z,55.33
2019-04-07T04:32:04.292Z,59.40
2019-04-07T04:34:34.676Z,61.23
2019-04-07T04:37:04.434Z,56.53
2019-04-07T04:39:34.049Z,56.33
2019-04-07T04:42:03.976Z,55.40
2019-04-07T04:44:33.939Z,64.00
2019-04-07T04:47:04.714Z,54.23
2019-04-07T04:49:35.266Z,55.30
2019-04-07T04:52:05.550Z,54.77
2019-04-07T04:54:35.395Z,56.33
2019-04-07T04:57:07.897Z,56.90
2019-04-07T04:59:36.724Z,51.13
2019-04-07T05:02:06.701Z,53.40
2019-04-07T05:04:36.292Z,53.43
2019-04-07T05:07:05.908Z,51.60
2019-04-07T05:09:44.272Z,57.30
2019-04-07T05:12:06.966Z,52.80
2019-04-07T05:14:37.801Z,56.57
2019-04-07T05:17:07.598Z,53.80
2019-04-07T05:19:37.317Z,59.43
2019-04-07T05:22:07.180Z,55.73
2019-04-07T05:24:36.854Z,59.90
2019-04-07T05:27:07.402Z,59.80
2019-04-07T05:29:37.091Z,58.33
2019-04-07T05:32:06.896Z,55.73
2019-04-07T05:34:37.631Z,59.60
2019-04-07T05:37:07.624Z,52.97
2019-04-07T05:39:37.292Z,58.13
2019-04-07T05:42:07.029Z,54.03
2019-04-07T05:44:37.188Z,54.93
2019-04-07T05:47:07.136Z,54.83
2019-04-07T05:49:36.846Z,58.00
2019-04-07T05:52:06.764Z,54.90
2019-04-07T05:54:37.736Z,55.03
2019-04-07T05:57:07.493Z,56.70
2019-04-07T05:59:37.668Z,55.43
2019-04-07T06:02:08.023Z,54.33
2019-04-07T06:04:39.382Z,59.67
2019-04-07T06:07:09.173Z,54.97
2019-04-07T06:09:38.818Z,53.23
2019-04-07T06:12:09.784Z,56.80
2019-04-07T06:14:40.164Z,56.20
2019-04-07T06:17:09.837Z,56.37
2019-04-07T06:19:41.250Z,54.57
2019-04-07T06:22:11.116Z,55.03
2019-04-07T06:24:41.745Z,51.00
2019-04-07T06:27:13.826Z,53.63
2019-04-07T06:29:43.462Z,52.10
2019-04-07T06:32:14.319Z,48.00
2019-04-07T06:34:44.437Z,58.43
2019-04-07T06:37:14.535Z,56.13
2019-04-07T06:39:44.278Z,54.60
2019-04-07T06:42:14.281Z,51.90
2019-04-07T06:44:44.595Z,50.70
2019-04-07T06:47:22.074Z,54.67
2019-04-07T06:50:15.435Z,46.63
2019-04-07T06:53:20.162Z,59.93
2019-04-07T06:56:01.802Z,51.70
2019-04-07T06:58:55.621Z,47.30
2019-04-07T07:01:50.202Z,64.23
2019-04-07T07:04:41.580Z,50.83
2019-04-07T07:07:42.573Z,44.07
2019-04-07T07:10:36.272Z,47.10
2019-04-07T07:13:29.859Z,43.13
2019-04-07T07:16:14.025Z,42.60
2019-04-07T07:19:07.447Z,47.17
2019-04-07T07:22:13.236Z,46.07
2019-04-07T07:24:39.744Z,39.97
2019-04-07T07:27:11.269Z,44.80
2019-04-07T07:29:40.983Z,43.60
2019-04-07T07:32:11.499Z,48.60
2019-04-07T07:34:42.220Z,46.17
2019-04-07T07:37:13.335Z,41.90
2019-04-07T07:39:45.136Z,45.53
2019-04-07T07:42:13.771Z,36.30
2019-04-07T07:44:43.838Z,44.87
2019-04-07T07:47:13.400Z,40.03
2019-04-07T07:49:42.610Z,39.03
2019-04-07T07:52:12.596Z,45.13
2019-04-07T07:54:45.124Z,39.87
2019-04-07T07:57:14.423Z,44.97
2019-04-07T07:59:44.047Z,44.33
2019-04-07T08:02:17.531Z,38.90
2019-04-07T08:04:45.644Z,39.43
2019-04-07T08:07:16.366Z,33.77
2019-04-07T08:09:45.543Z,38.33
2019-04-07T08:12:15.242Z,33.60
2019-04-07T08:14:44.820Z,39.97
2019-04-07T08:17:15.144Z,39.53
2019-04-07T08:19:45.619Z,39.63
2019-04-07T08:22:26.596Z,43.23
2019-04-07T08:24:49.654Z,36.07
2019-04-07T08:27:17.345Z,51.13
2019-04-07T08:29:47.412Z,36.90
2019-04-07T08:32:16.712Z,39.50
2019-04-07T08:34:45.925Z,43.00
2019-04-07T08:37:16.560Z,42.53
2019-04-07T08:39:45.718Z,33.60
2019-04-07T08:42:18.625Z,39.27
2019-04-07T08:44:46.282Z,37.00
2019-04-07T08:47:20.763Z,34.63
2019-04-07T08:49:47.167Z,35.57
2019-04-07T08:52:16.405Z,30.43
2019-04-07T08:54:48.299Z,35.50
2019-04-07T08:57:16.369Z,32.70
2019-04-07T08:59:45.536Z,37.67
2019-04-07T09:02:14.850Z,34.33
2019-04-07T09:04:46.611Z,29.60
2019-04-07T09:07:15.375Z,34.07
2019-04-07T09:09:47.496Z,42.90
2019-04-07T09:12:15.984Z,37.40
2019-04-07T09:14:45.654Z,37.33
2019-04-07T09:17:40.488Z,40.17
2019-04-07T09:20:23.776Z,38.20
2019-04-07T09:23:11.386Z,33.00
2019-04-07T09:25:59.499Z,30.47
2019-04-07T09:28:40.527Z,37.40
2019-04-07T09:31:32.586Z,34.13
2019-04-07T09:34:22.251Z,36.53
2019-04-07T09:37:18.545Z,31.30
2019-04-07T09:40:04.252Z,31.73
2019-04-07T09:42:45.953Z,37.77
2019-04-07T09:45:32.377Z,35.23
2019-04-07T09:48:27.786Z,32.97
2019-04-07T09:51:15.439Z,25.13
2019-04-07T09:54:13.336Z,27.47
2019-04-07T09:57:09.716Z,24.63
2019-04-07T10:00:14.320Z,23.43
2019-04-07T10:03:12.933Z,20.57
2019-04-07T10:06:03.275Z,20.80
2019-04-07T10:08:55.324Z,31.03
2019-04-07T10:11:42.512Z,25.33
2019-04-07T10:14:29.659Z,23.33
2019-04-07T10:17:19.191Z,19.63
2019-04-07T10:20:04.381Z,19.80
2019-04-07T10:22:59.291Z,20.87
2019-04-07T10:25:50.759Z,17.33
2019-04-07T10:28:31.157Z,20.40
2019-04-07T10:31:37.842Z,20.33
2019-04-07T10:34:23.706Z,22.33
2019-04-07T10:37:11.012Z,20.60
2019-04-07T10:40:02.948Z,21.20
2019-04-07T10:42:41.209Z,17.43
2019-04-07T10:45:18.008Z,20.03
2019-04-07T10:48:09.240Z,22.90
2019-04-07T10:51:12.619Z,19.60
2019-04-07T10:54:07.046Z,18.53
2019-04-07T10:56:57.088Z,20.20
2019-04-07T10:59:49.855Z,19.03
2019-04-07T11:02:45.916Z,24.37
2019-04-07T11:05:33.141Z,17.67
2019-04-07T11:08:21.780Z,19.87
2019-04-07T11:11:09.800Z,33.67
2019-04-07T11:13:51.657Z,20.53
2019-04-07T11:16:38.708Z,17.73
2019-04-07T11:19:15.764Z,25.10
2019-04-07T11:21:56.632Z,22.40
2019-04-07T11:24:39.889Z,18.07
2019-04-07T11:27:31.075Z,16.87
2019-04-07T11:30:38.701Z,18.10
2019-04-07T11:33:20.271Z,16.43
2019-04-07T11:36:13.883Z,15.13
2019-04-07T11:39:02.835Z,16.93
2019-04-07T11:41:56.758Z,24.53
2019-04-07T11:44:49.600Z,15.77
2019-04-07T11:47:25.474Z,16.20
2019-04-07T11:50:21.198Z,15.43
2019-04-07T11:53:05.024Z,21.90
2019-04-07T11:55:50.994Z,16.40
2019-04-07T11:58:36.146Z,19.50
2019-04-07T12:01:24.055Z,17.63
2019-04-07T12:04:15.193Z,15.67
2019-04-07T12:07:00.025Z,16.63
2019-04-07T12:09:41.213Z,21.70
2019-04-07T12:12:28.898Z,27.90
2019-04-07T12:15:24.201Z,17.30
2019-04-07T12:18:16.806Z,17.27
2019-04-07T12:21:02.331Z,18.97
2019-04-07T12:23:38.427Z,24.33
2019-04-07T12:26:31.473Z,22.07
2019-04-07T12:29:19.412Z,16.53
2019-04-07T12:32:06.579Z,15.00
2019-04-07T12:34:54.699Z,16.60
2019-04-07T12:37:39.296Z,57.67
2019-04-07T12:40:26.099Z,17.47
2019-04-07T12:43:04.605Z,19.83
2019-04-07T12:45:40.198Z,19.53
2019-04-07T12:48:28.926Z,19.47
2019-04-07T12:51:13.710Z,22.33
2019-04-07T12:53:47.969Z,17.57
2019-04-07T12:56:31.679Z,15.47
2019-04-07T12:59:19.271Z,15.17
2019-04-07T13:02:01.411Z,15.07
2019-04-07T13:05:03.475Z,15.17
2019-04-07T13:07:49.538Z,14.17
2019-04-07T13:10:38.245Z,20.20
2019-04-07T13:13:36.363Z,23.77
2019-04-07T13:16:38.117Z,27.90
2019-04-07T13:19:33.216Z,18.87
2019-04-07T13:22:37.732Z,16.60
2019-04-07T13:25:22.887Z,17.20
2019-04-07T13:28:10.951Z,19.40
2019-04-07T13:31:18.134Z,17.80
2019-04-07T13:33:59.538Z,27.07
2019-04-07T13:36:45.157Z,15.70
2019-04-07T13:39:25.010Z,16.03
2019-04-07T13:42:13.205Z,16.57
2019-04-07T13:44:53.725Z,14.73
2019-04-07T13:47:33.024Z,15.97
2019-04-07T13:50:22.504Z,17.13
2019-04-07T13:53:02.352Z,18.70
2019-04-07T13:55:51.967Z,14.73
2019-04-07T13:58:31.023Z,20.37
2019-04-07T14:01:18.568Z,14.27
2019-04-07T14:03:59.038Z,13.20
2019-04-07T14:06:36.190Z,31.23
2019-04-07T14:09:27.186Z,15.20
2019-04-07T14:12:15.622Z,16.33
2019-04-07T14:15:01.704Z,23.40
2019-04-07T14:17:43.768Z,14.37
2019-04-07T14:20:31.438Z,24.40
2019-04-07T14:23:29.807Z,18.90
2019-04-07T14:26:14.271Z,15.50
2019-04-07T14:29:02.006Z,20.87
2019-04-07T14:32:02.000Z,18.70
2019-04-07T14:34:51.018Z,14.93
2019-04-07T14:37:37.310Z,14.93
2019-04-07T14:40:15.091Z,19.23
2019-04-07T14:43:04.597Z,17.70
2019-04-07T14:45:48.465Z,15.50
2019-04-07T14:48:40.627Z,16.57
2019-04-07T14:51:48.296Z,17.33
2019-04-07T14:54:31.139Z,18.30
2019-04-07T14:57:19.081Z,20.97
2019-04-07T14:59:56.671Z,15.60
2019-04-07T15:02:26.362Z,16.47
2019-04-07T15:05:00.871Z,14.20
2019-04-07T15:07:42.883Z,16.70
2019-04-07T15:10:18.030Z,14.00
2019-04-07T15:12:52.392Z,16.10
2019-04-07T15:15:22.545Z,16.90
2019-04-07T15:17:52.428Z,14.23
2019-04-07T15:20:22.132Z,18.97
2019-04-07T15:22:52.918Z,19.60
2019-04-07T15:25:22.710Z,21.93
2019-04-07T15:27:55.264Z,19.73
2019-04-07T15:30:24.285Z,15.03
2019-04-07T15:32:57.792Z,19.93
2019-04-07T15:35:26.513Z,19.00
2019-04-07T15:37:57.018Z,17.60
2019-04-07T15:40:26.965Z,17.93
2019-04-07T15:42:56.910Z,17.60
2019-04-07T15:45:26.747Z,22.17
2019-04-07T15:47:56.486Z,15.03
2019-04-07T15:50:29.395Z,16.60
2019-04-07T15:52:58.433Z,20.43
2019-04-07T15:55:42.382Z,16.43
2019-04-07T15:57:59.719Z,17.10
2019-04-07T16:00:32.309Z,14.37
2019-04-07T16:03:00.741Z,17.90
2019-04-07T16:05:37.555Z,20.10
2019-04-07T16:08:02.257Z,22.33
2019-04-07T16:10:32.040Z,14.53
2019-04-07T16:13:02.528Z,17.30
2019-04-07T16:15:33.408Z,21.70
2019-04-07T16:18:06.133Z,22.43
2019-04-07T16:20:38.748Z,19.83
2019-04-07T16:23:05.982Z,22.50
2019-04-07T16:25:36.565Z,38.13
2019-04-07T16:28:11.375Z,25.50
2019-04-07T16:30:38.387Z,34.77
2019-04-07T16:33:08.851Z,33.00
2019-04-07T16:35:38.592Z,25.13
2019-04-07T16:38:08.220Z,23.20
2019-04-07T16:40:40.465Z,20.87
2019-04-07T16:43:14.500Z,34.40
2019-04-07T16:45:44.149Z,26.40
2019-04-07T16:48:12.853Z,29.67
2019-04-07T16:50:42.595Z,22.03
2019-04-07T16:53:13.957Z,22.57
2019-04-07T16:55:46.550Z,27.70
2019-04-07T16:58:15.905Z,29.60
2019-04-07T17:00:47.546Z,29.10
2019-04-07T17:03:17.565Z,22.80
2019-04-07T17:05:47.392Z,25.33
2019-04-07T17:08:19.605Z,22.00
2019-04-07T17:10:48.609Z,26.07
2019-04-07T17:13:23.781Z,21.80
2019-04-07T17:15:51.999Z,30.33
2019-04-07T17:18:37.158Z,28.77
2019-04-07T17:21:12.622Z,23.00
2019-04-07T17:23:42.643Z,21.47
2019-04-07T17:26:13.613Z,24.03
2019-04-07T17:28:45.990Z,18.10
2019-04-07T17:31:15.116Z,20.73
2019-04-07T17:33:45.716Z,21.17
2019-04-07T17:36:18.797Z,26.17
2019-04-07T17:39:05.253Z,23.90
2019-04-07T17:41:36.015Z,17.00
2019-04-07T17:44:24.501Z,21.00
2019-04-07T17:47:16.115Z,21.47
2019-04-07T17:50:07.368Z,21.60
2019-04-07T17:52:44.124Z,24.00
2019-04-07T17:55:33.194Z,21.50
2019-04-07T17:58:22.468Z,18.73
2019-04-07T18:01:12.721Z,25.20
2019-04-07T18:04:00.638Z,32.00
2019-04-07T18:06:48.267Z,50.73
2019-04-07T18:09:33.001Z,24.20
2019-04-07T18:12:15.464Z,21.40
2019-04-07T18:15:15.608Z,21.20
2019-04-07T18:17:58.808Z,28.57
2019-04-07T18:20:39.586Z,24.00
2019-04-07T18:23:25.559Z,31.73
2019-04-07T18:26:14.310Z,23.63
2019-04-07T18:28:52.710Z,23.70
2019-04-07T18:31:43.564Z,24.97
2019-04-07T18:34:41.827Z,21.50
2019-04-07T18:37:31.148Z,24.20
2019-04-07T18:40:38.543Z,24.87
2019-04-07T18:43:22.043Z,27.60
2019-04-07T18:46:01.713Z,24.43
2019-04-07T18:48:53.297Z,26.47
2019-04-07T18:51:31.537Z,24.83
2019-04-07T18:54:31.101Z,30.27
2019-04-07T18:57:21.617Z,35.70
2019-04-07T19:00:19.720Z,29.13
2019-04-07T19:03:14.443Z,24.03
2019-04-07T19:06:07.457Z,24.93
2019-04-07T19:08:55.081Z,29.73
2019-04-07T19:11:48.528Z,23.17
2019-04-07T19:15:01.155Z,42.87
2019-04-07T19:17:30.460Z,25.77
2019-04-07T19:20:19.374Z,23.57
2019-04-07T19:23:27.194Z,22.87
2019-04-07T19:26:34.641Z,20.30
2019-04-07T19:29:22.508Z,22.93
2019-04-07T19:32:06.528Z,26.93
2019-04-07T19:34:53.008Z,23.33
2019-04-07T19:37:52.710Z,22.17
2019-04-07T19:40:38.467Z,21.43
2019-04-07T19:43:30.404Z,26.53
2019-04-07T19:46:29.192Z,45.37
2019-04-07T19:49:14.668Z,27.53
2019-04-07T19:52:07.055Z,27.67
2019-04-07T19:54:55.157Z,20.80
2019-04-07T19:57:32.209Z,20.47
2019-04-07T20:00:21.555Z,21.07
2019-04-07T20:03:07.627Z,25.67
2019-04-07T20:05:53.380Z,22.73
2019-04-07T20:08:43.787Z,20.50
2019-04-07T20:11:36.912Z,25.60
2019-04-07T20:14:22.777Z,17.70
2019-04-07T20:17:21.044Z,22.87
2019-04-07T20:20:08.840Z,24.20
2019-04-07T20:23:06.397Z,25.03
2019-04-07T20:25:53.002Z,22.30
2019-04-07T20:28:32.984Z,19.40
2019-04-07T20:31:10.529Z,18.30
2019-04-07T20:33:56.816Z,19.07
2019-04-07T20:36:59.856Z,17.40
2019-04-07T20:39:39.147Z,20.00
2019-04-07T20:42:17.131Z,21.20
2019-04-07T20:45:13.624Z,19.07
2019-04-07T20:47:48.795Z,18.23
2019-04-07T20:50:37.633Z,19.07
2019-04-07T20:53:29.018Z,21.97
2019-04-07T20:56:25.017Z,17.67
2019-04-07T20:59:26.870Z,21.67
2019-04-07T21:02:29.320Z,19.57
2019-04-07T21:05:10.451Z,21.73
2019-04-07T21:08:18.511Z,18.93
2019-04-07T21:11:07.498Z,19.10
2019-04-07T21:13:55.080Z,20.23
2019-04-07T21:16:36.805Z,21.03
2019-04-07T21:19:18.786Z,17.57
2019-04-07T21:22:23.877Z,18.53
2019-04-07T21:25:15.614Z,19.90
2019-04-07T21:27:57.842Z,19.30
2019-04-07T21:30:36.771Z,20.53
2019-04-07T21:33:23.592Z,19.80
2019-04-07T21:36:28.045Z,22.60
2019-04-07T21:39:12.783Z,18.10
2019-04-07T21:42:00.448Z,25.47
2019-04-07T21:44:47.647Z,19.80
2019-04-07T21:47:31.022Z,25.77
2019-04-07T21:50:28.724Z,22.40
2019-04-07T21:53:31.943Z,19.50
2019-04-07T21:56:20.035Z,22.10
2019-04-07T21:59:06.197Z,21.13
2019-04-07T22:02:00.022Z,19.83
2019-04-07T22:04:58.646Z,27.20
2019-04-07T22:07:35.528Z,25.80
2019-04-07T22:10:07.491Z,25.93
2019-04-07T22:12:38.025Z,21.97
2019-04-07T22:15:11.727Z,28.33
2019-04-07T22:17:40.617Z,28.10
2019-04-07T22:20:10.623Z,23.60
2019-04-07T22:22:40.838Z,26.73
2019-04-07T22:25:11.494Z,25.30
2019-04-07T22:27:41.291Z,27.53
2019-04-07T22:30:12.122Z,35.43
2019-04-07T22:32:42.667Z,40.40
2019-04-07T22:35:13.159Z,22.53
2019-04-07T22:37:42.823Z,23.67
2019-04-07T22:40:20.023Z,25.57
2019-04-07T22:42:50.052Z,25.37
2019-04-07T22:45:25.128Z,22.60
2019-04-07T22:47:52.393Z,26.40
2019-04-07T22:50:23.354Z,22.57
2019-04-07T22:52:53.377Z,26.27
2019-04-07T22:55:23.488Z,28.50
2019-04-07T22:57:53.676Z,26.23
2019-04-07T23:00:25.490Z,29.53
2019-04-07T23:02:55.496Z,28.00
2019-04-07T23:05:25.642Z,27.50
2019-04-07T23:07:56.350Z,23.30
2019-04-07T23:10:26.119Z,33.77
2019-04-07T23:12:56.021Z,26.73
2019-04-07T23:15:37.268Z,27.10
2019-04-07T23:17:57.658Z,25.70
2019-04-07T23:20:27.471Z,30.60
2019-04-07T23:22:57.210Z,28.80
2019-04-07T23:25:26.788Z,29.00
2019-04-07T23:27:56.410Z,28.70
2019-04-07T23:30:27.897Z,28.30
2019-04-07T23:32:57.817Z,28.63
2019-04-07T23:35:27.550Z,29.20
2019-04-07T23:37:57.418Z,29.43
2019-04-07T23:40:26.832Z,31.60
2019-04-07T23:42:55.911Z,27.67
2019-04-07T23:45:25.342Z,33.10
2019-04-07T23:47:54.923Z,30.57
2019-04-07T23:50:25.225Z,35.40
2019-04-07T23:52:55.957Z,28.13
2019-04-07T23:55:25.960Z,47.83
2019-04-07T23:57:56.288Z,27.73
